sensor_id;sensor_type;location;lat;lon;timestamp;P1;durP1;ratioP1;P2;durP2;ratioP2
14326;SDS011;7247;53.330;-1.180;2023-04-25T00:02:08;10.80;;;4.07;;
14326;SDS011;7247;53.330;-1.180;2023-04-25T00:04:34;12.40;;;3.93;;
14326;SDS011;7247;53.330;-1.180;2023-04-25T00:07:03;12.30;;;4.73;;
14326;SDS011;7247;53.330;-1.180;2023-04-25T00:09:29;9.37;;;3.90;;
14326;SDS011;7247;53.330;-1.180;2023-04-25T00:11:56;8.47;;;4.20;;
14326;SDS011;7247;53.330;-1.180;2023-04-25T00:14:22;14.30;;;4.20;;
14326;SDS011;7247;53.330;-1.180;2023-04-25T00:16:50;9.83;;;3.97;;
14326;SDS011;7247;53.330;-1.180;2023-04-25T00:19:17;11.77;;;4.20;;
14326;SDS011;7247;53.330;-1.180;2023-04-25T00:21:43;8.50;;;4.83;;
14326;SDS011;7247;53.330;-1.180;2023-04-25T00:24:11;10.10;;;4.00;;
14326;SDS011;7247;53.330;-1.180;2023-04-25T00:26:37;13.87;;;4.30;;
14326;SDS011;7247;53.330;-1.180;2023-04-25T00:29:04;12.53;;;4.10;;
14326;SDS011;7247;53.330;-1.180;2023-04-25T00:31:30;11.13;;;4.50;;
14326;SDS011;7247;53.330;-1.180;2023-04-25T00:33:58;12.80;;;4.63;;
14326;SDS011;7247;53.330;-1.180;2023-04-25T00:36:25;12.57;;;4.27;;
14326;SDS011;7247;53.330;-1.180;2023-04-25T00:38:52;11.33;;;3.50;;
14326;SDS011;7247;53.330;-1.180;2023-04-25T00:41:18;13.97;;;4.10;;
14326;SDS011;7247;53.330;-1.180;2023-04-25T00:43:45;11.57;;;4.30;;
14326;SDS011;7247;53.330;-1.180;2023-04-25T00:46:12;13.07;;;4.10;;
14326;SDS011;7247;53.330;-1.180;2023-04-25T00:48:38;10.50;;;3.80;;
14326;SDS011;7247;53.330;-1.180;2023-04-25T00:51:06;9.50;;;4.10;;
14326;SDS011;7247;53.330;-1.180;2023-04-25T00:53:32;10.50;;;3.63;;
14326;SDS011;7247;53.330;-1.180;2023-04-25T00:55:59;12.77;;;3.73;;
14326;SDS011;7247;53.330;-1.180;2023-04-25T00:58:25;11.10;;;3.43;;
14326;SDS011;7247;53.330;-1.180;2023-04-25T01:00:52;11.23;;;3.40;;
14326;SDS011;7247;53.330;-1.180;2023-04-25T01:03:19;9.30;;;3.20;;
14326;SDS011;7247;53.330;-1.180;2023-04-25T01:05:45;9.83;;;3.07;;
14326;SDS011;7247;53.330;-1.180;2023-04-25T01:08:13;10.67;;;3.50;;
14326;SDS011;7247;53.330;-1.180;2023-04-25T01:10:40;6.43;;;3.60;;
14326;SDS011;7247;53.330;-1.180;2023-04-25T01:13:06;10.97;;;3.37;;
14326;SDS011;7247;53.330;-1.180;2023-04-25T01:15:33;10.50;;;3.43;;
14326;SDS011;7247;53.330;-1.180;2023-04-25T01:18:00;10.60;;;3.60;;
14326;SDS011;7247;53.330;-1.180;2023-04-25T01:20:27;8.13;;;2.90;;
14326;SDS011;7247;53.330;-1.180;2023-04-25T01:22:56;11.43;;;3.97;;
14326;SDS011;7247;53.330;-1.180;2023-04-25T01:25:22;11.97;;;3.40;;
14326;SDS011;7247;53.330;-1.180;2023-04-25T01:27:49;11.33;;;3.33;;
14326;SDS011;7247;53.330;-1.180;2023-04-25T01:30:15;8.70;;;3.57;;
14326;SDS011;7247;53.330;-1.180;2023-04-25T01:32:42;10.80;;;3.77;;
14326;SDS011;7247;53.330;-1.180;2023-04-25T01:35:09;8.60;;;3.50;;
14326;SDS011;7247;53.330;-1.180;2023-04-25T01:37:36;8.87;;;3.00;;
14326;SDS011;7247;53.330;-1.180;2023-04-25T01:40:04;12.83;;;3.43;;
14326;SDS011;7247;53.330;-1.180;2023-04-25T01:42:31;9.70;;;3.63;;
14326;SDS011;7247;53.330;-1.180;2023-04-25T01:44:58;6.37;;;2.90;;
14326;SDS011;7247;53.330;-1.180;2023-04-25T01:47:24;9.37;;;3.20;;
14326;SDS011;7247;53.330;-1.180;2023-04-25T01:49:51;12.23;;;3.00;;
14326;SDS011;7247;53.330;-1.180;2023-04-25T01:52:17;7.27;;;2.73;;
14326;SDS011;7247;53.330;-1.180;2023-04-25T01:54:43;8.47;;;3.10;;
14326;SDS011;7247;53.330;-1.180;2023-04-25T01:57:11;18.13;;;3.40;;
14326;SDS011;7247;53.330;-1.180;2023-04-25T01:59:38;9.73;;;3.17;;
14326;SDS011;7247;53.330;-1.180;2023-04-25T02:02:04;9.00;;;3.20;;
14326;SDS011;7247;53.330;-1.180;2023-04-25T02:04:31;11.70;;;2.90;;
14326;SDS011;7247;53.330;-1.180;2023-04-25T02:06:57;11.43;;;3.00;;
14326;SDS011;7247;53.330;-1.180;2023-04-25T02:09:24;8.13;;;3.00;;
14326;SDS011;7247;53.330;-1.180;2023-04-25T02:11:50;7.13;;;3.10;;
14326;SDS011;7247;53.330;-1.180;2023-04-25T02:14:18;7.50;;;3.00;;
14326;SDS011;7247;53.330;-1.180;2023-04-25T02:16:44;11.47;;;2.90;;
14326;SDS011;7247;53.330;-1.180;2023-04-25T02:19:11;9.00;;;2.97;;
14326;SDS011;7247;53.330;-1.180;2023-04-25T02:21:38;10.57;;;2.90;;
14326;SDS011;7247;53.330;-1.180;2023-04-25T02:24:04;9.17;;;2.93;;
14326;SDS011;7247;53.330;-1.180;2023-04-25T02:26:31;11.87;;;2.87;;
14326;SDS011;7247;53.330;-1.180;2023-04-25T02:28:57;7.73;;;2.90;;
14326;SDS011;7247;53.330;-1.180;2023-04-25T02:31:25;8.67;;;2.33;;
14326;SDS011;7247;53.330;-1.180;2023-04-25T02:33:51;6.93;;;2.83;;
14326;SDS011;7247;53.330;-1.180;2023-04-25T02:36:18;9.67;;;3.07;;
14326;SDS011;7247;53.330;-1.180;2023-04-25T02:38:44;8.77;;;2.77;;
14326;SDS011;7247;53.330;-1.180;2023-04-25T02:41:11;8.83;;;2.93;;
14326;SDS011;7247;53.330;-1.180;2023-04-25T02:43:37;10.70;;;2.93;;
14326;SDS011;7247;53.330;-1.180;2023-04-25T02:46:04;9.67;;;3.20;;
14326;SDS011;7247;53.330;-1.180;2023-04-25T02:48:31;10.53;;;2.70;;
14326;SDS011;7247;53.330;-1.180;2023-04-25T02:50:58;8.40;;;2.83;;
14326;SDS011;7247;53.330;-1.180;2023-04-25T02:53:24;7.13;;;2.37;;
14326;SDS011;7247;53.330;-1.180;2023-04-25T02:55:50;8.83;;;2.60;;
14326;SDS011;7247;53.330;-1.180;2023-04-25T02:58:18;7.83;;;2.50;;
14326;SDS011;7247;53.330;-1.180;2023-04-25T03:00:44;8.03;;;2.47;;
14326;SDS011;7247;53.330;-1.180;2023-04-25T03:03:11;4.93;;;2.30;;
14326;SDS011;7247;53.330;-1.180;2023-04-25T03:05:38;7.23;;;2.73;;
14326;SDS011;7247;53.330;-1.180;2023-04-25T03:08:05;10.03;;;2.73;;
14326;SDS011;7247;53.330;-1.180;2023-04-25T03:10:31;5.73;;;2.30;;
14326;SDS011;7247;53.330;-1.180;2023-04-25T03:12:58;7.47;;;2.47;;
14326;SDS011;7247;53.330;-1.180;2023-04-25T03:15:24;7.87;;;2.30;;
14326;SDS011;7247;53.330;-1.180;2023-04-25T03:17:50;9.07;;;2.60;;
14326;SDS011;7247;53.330;-1.180;2023-04-25T03:20:17;9.97;;;2.57;;
14326;SDS011;7247;53.330;-1.180;2023-04-25T03:22:45;6.77;;;2.87;;
14326;SDS011;7247;53.330;-1.180;2023-04-25T03:25:11;7.07;;;2.60;;
14326;SDS011;7247;53.330;-1.180;2023-04-25T03:27:37;9.37;;;2.83;;
14326;SDS011;7247;53.330;-1.180;2023-04-25T03:30:04;8.80;;;2.50;;
14326;SDS011;7247;53.330;-1.180;2023-04-25T03:32:31;5.50;;;2.40;;
14326;SDS011;7247;53.330;-1.180;2023-04-25T03:34:57;8.40;;;2.50;;
14326;SDS011;7247;53.330;-1.180;2023-04-25T03:37:24;10.03;;;2.47;;
14326;SDS011;7247;53.330;-1.180;2023-04-25T03:39:52;5.57;;;2.20;;
14326;SDS011;7247;53.330;-1.180;2023-04-25T03:42:18;6.43;;;2.63;;
14326;SDS011;7247;53.330;-1.180;2023-04-25T03:44:45;7.40;;;2.40;;
14326;SDS011;7247;53.330;-1.180;2023-04-25T03:47:11;6.60;;;2.47;;
14326;SDS011;7247;53.330;-1.180;2023-04-25T03:49:38;7.93;;;2.63;;
14326;SDS011;7247;53.330;-1.180;2023-04-25T03:52:04;8.70;;;2.27;;
14326;SDS011;7247;53.330;-1.180;2023-04-25T03:54:30;8.50;;;2.67;;
14326;SDS011;7247;53.330;-1.180;2023-04-25T03:56:58;8.70;;;2.73;;
14326;SDS011;7247;53.330;-1.180;2023-04-25T03:59:25;7.87;;;2.20;;
14326;SDS011;7247;53.330;-1.180;2023-04-25T04:01:51;7.50;;;2.53;;
14326;SDS011;7247;53.330;-1.180;2023-04-25T04:04:17;6.33;;;2.57;;
14326;SDS011;7247;53.330;-1.180;2023-04-25T04:06:44;6.87;;;2.63;;
14326;SDS011;7247;53.330;-1.180;2023-04-25T04:09:10;9.40;;;2.83;;
14326;SDS011;7247;53.330;-1.180;2023-04-25T04:11:37;6.97;;;2.60;;
14326;SDS011;7247;53.330;-1.180;2023-04-25T04:14:05;9.50;;;3.10;;
14326;SDS011;7247;53.330;-1.180;2023-04-25T04:16:32;10.57;;;3.37;;
14326;SDS011;7247;53.330;-1.180;2023-04-25T04:18:58;8.07;;;3.10;;
14326;SDS011;7247;53.330;-1.180;2023-04-25T04:21:25;9.90;;;2.80;;
14326;SDS011;7247;53.330;-1.180;2023-04-25T04:23:52;6.27;;;2.90;;
14326;SDS011;7247;53.330;-1.180;2023-04-25T04:26:19;9.27;;;3.30;;
14326;SDS011;7247;53.330;-1.180;2023-04-25T04:28:48;7.10;;;3.07;;
14326;SDS011;7247;53.330;-1.180;2023-04-25T04:31:16;10.83;;;3.83;;
14326;SDS011;7247;53.330;-1.180;2023-04-25T04:33:44;7.53;;;3.80;;
14326;SDS011;7247;53.330;-1.180;2023-04-25T04:36:11;10.33;;;3.10;;
14326;SDS011;7247;53.330;-1.180;2023-04-25T04:38:38;8.00;;;3.50;;
14326;SDS011;7247;53.330;-1.180;2023-04-25T04:41:05;9.67;;;3.20;;
14326;SDS011;7247;53.330;-1.180;2023-04-25T04:43:31;7.90;;;3.20;;
14326;SDS011;7247;53.330;-1.180;2023-04-25T04:45:58;8.30;;;3.37;;
14326;SDS011;7247;53.330;-1.180;2023-04-25T04:48:27;7.73;;;3.30;;
14326;SDS011;7247;53.330;-1.180;2023-04-25T04:50:54;8.07;;;3.33;;
14326;SDS011;7247;53.330;-1.180;2023-04-25T04:53:20;10.10;;;3.40;;
14326;SDS011;7247;53.330;-1.180;2023-04-25T04:55:46;9.67;;;3.50;;
14326;SDS011;7247;53.330;-1.180;2023-04-25T04:58:13;6.63;;;3.30;;
14326;SDS011;7247;53.330;-1.180;2023-04-25T05:00:39;8.40;;;3.00;;
14326;SDS011;7247;53.330;-1.180;2023-04-25T05:03:06;9.40;;;3.67;;
14326;SDS011;7247;53.330;-1.180;2023-04-25T05:05:34;7.97;;;3.63;;
14326;SDS011;7247;53.330;-1.180;2023-04-25T05:08:00;8.53;;;3.10;;
14326;SDS011;7247;53.330;-1.180;2023-04-25T05:10:26;9.67;;;3.90;;
14326;SDS011;7247;53.330;-1.180;2023-04-25T05:12:53;7.73;;;3.00;;
14326;SDS011;7247;53.330;-1.180;2023-04-25T05:15:19;9.50;;;3.90;;
14326;SDS011;7247;53.330;-1.180;2023-04-25T05:17:46;9.10;;;3.20;;
14326;SDS011;7247;53.330;-1.180;2023-04-25T05:20:12;9.23;;;3.23;;
14326;SDS011;7247;53.330;-1.180;2023-04-25T05:22:40;10.00;;;3.20;;
14326;SDS011;7247;53.330;-1.180;2023-04-25T05:25:08;7.33;;;3.10;;
14326;SDS011;7247;53.330;-1.180;2023-04-25T05:27:34;8.00;;;3.20;;
14326;SDS011;7247;53.330;-1.180;2023-04-25T05:30:01;12.83;;;3.47;;
14326;SDS011;7247;53.330;-1.180;2023-04-25T05:32:28;9.37;;;2.80;;
14326;SDS011;7247;53.330;-1.180;2023-04-25T05:34:54;9.03;;;3.03;;
14326;SDS011;7247;53.330;-1.180;2023-04-25T05:37:20;5.13;;;2.70;;
14326;SDS011;7247;53.330;-1.180;2023-04-25T05:39:48;8.50;;;3.00;;
14326;SDS011;7247;53.330;-1.180;2023-04-25T05:42:15;9.10;;;2.80;;
14326;SDS011;7247;53.330;-1.180;2023-04-25T05:44:41;12.90;;;2.80;;
14326;SDS011;7247;53.330;-1.180;2023-04-25T05:47:07;8.07;;;2.57;;
14326;SDS011;7247;53.330;-1.180;2023-04-25T05:49:34;6.33;;;2.70;;
14326;SDS011;7247;53.330;-1.180;2023-04-25T05:52:00;6.70;;;2.60;;
14326;SDS011;7247;53.330;-1.180;2023-04-25T05:54:27;8.43;;;2.70;;
14326;SDS011;7247;53.330;-1.180;2023-04-25T05:56:55;6.30;;;3.17;;
14326;SDS011;7247;53.330;-1.180;2023-04-25T05:59:22;7.53;;;3.13;;
14326;SDS011;7247;53.330;-1.180;2023-04-25T06:01:48;7.60;;;2.80;;
14326;SDS011;7247;53.330;-1.180;2023-04-25T06:04:15;9.27;;;2.57;;
14326;SDS011;7247;53.330;-1.180;2023-04-25T06:06:41;6.60;;;2.63;;
14326;SDS011;7247;53.330;-1.180;2023-04-25T06:09:07;8.77;;;2.77;;
14326;SDS011;7247;53.330;-1.180;2023-04-25T06:11:34;7.97;;;2.80;;
14326;SDS011;7247;53.330;-1.180;2023-04-25T06:14:02;8.93;;;2.80;;
14326;SDS011;7247;53.330;-1.180;2023-04-25T06:16:28;7.33;;;2.63;;
14326;SDS011;7247;53.330;-1.180;2023-04-25T06:18:54;7.70;;;2.83;;
14326;SDS011;7247;53.330;-1.180;2023-04-25T06:21:21;8.67;;;2.60;;
14326;SDS011;7247;53.330;-1.180;2023-04-25T06:23:47;7.67;;;2.00;;
14326;SDS011;7247;53.330;-1.180;2023-04-25T06:26:14;7.80;;;2.47;;
14326;SDS011;7247;53.330;-1.180;2023-04-25T06:28:40;7.73;;;2.43;;
14326;SDS011;7247;53.330;-1.180;2023-04-25T06:31:08;10.93;;;2.40;;
14326;SDS011;7247;53.330;-1.180;2023-04-25T06:33:34;8.33;;;2.10;;
14326;SDS011;7247;53.330;-1.180;2023-04-25T06:36:01;6.87;;;2.17;;
14326;SDS011;7247;53.330;-1.180;2023-04-25T06:38:28;7.77;;;2.33;;
14326;SDS011;7247;53.330;-1.180;2023-04-25T06:40:54;6.30;;;2.67;;
14326;SDS011;7247;53.330;-1.180;2023-04-25T06:43:21;4.60;;;2.17;;
14326;SDS011;7247;53.330;-1.180;2023-04-25T06:45:47;10.43;;;2.37;;
14326;SDS011;7247;53.330;-1.180;2023-04-25T06:48:15;11.10;;;2.80;;
14326;SDS011;7247;53.330;-1.180;2023-04-25T06:50:41;5.97;;;2.50;;
14326;SDS011;7247;53.330;-1.180;2023-04-25T06:53:08;4.33;;;1.90;;
14326;SDS011;7247;53.330;-1.180;2023-04-25T06:55:36;7.83;;;2.57;;
14326;SDS011;7247;53.330;-1.180;2023-04-25T06:58:04;5.13;;;2.47;;
14326;SDS011;7247;53.330;-1.180;2023-04-25T07:00:30;7.43;;;2.40;;
14326;SDS011;7247;53.330;-1.180;2023-04-25T07:02:57;7.97;;;2.40;;
14326;SDS011;7247;53.330;-1.180;2023-04-25T07:05:25;6.60;;;2.30;;
14326;SDS011;7247;53.330;-1.180;2023-04-25T07:07:51;3.93;;;2.00;;
14326;SDS011;7247;53.330;-1.180;2023-04-25T07:10:18;6.13;;;2.20;;
14326;SDS011;7247;53.330;-1.180;2023-04-25T07:12:44;4.13;;;2.00;;
14326;SDS011;7247;53.330;-1.180;2023-04-25T07:15:11;8.60;;;2.50;;
14326;SDS011;7247;53.330;-1.180;2023-04-25T07:17:37;4.67;;;2.40;;
14326;SDS011;7247;53.330;-1.180;2023-04-25T07:20:04;5.70;;;2.20;;
14326;SDS011;7247;53.330;-1.180;2023-04-25T07:22:34;6.20;;;2.30;;
14326;SDS011;7247;53.330;-1.180;2023-04-25T07:25:00;4.53;;;2.10;;
14326;SDS011;7247;53.330;-1.180;2023-04-25T07:27:27;5.40;;;2.70;;
14326;SDS011;7247;53.330;-1.180;2023-04-25T07:29:53;7.27;;;2.50;;
14326;SDS011;7247;53.330;-1.180;2023-04-25T07:32:20;5.37;;;2.40;;
14326;SDS011;7247;53.330;-1.180;2023-04-25T07:34:46;5.43;;;2.30;;
14326;SDS011;7247;53.330;-1.180;2023-04-25T07:37:12;7.43;;;2.50;;
14326;SDS011;7247;53.330;-1.180;2023-04-25T07:39:40;4.70;;;2.57;;
14326;SDS011;7247;53.330;-1.180;2023-04-25T07:42:07;7.30;;;2.53;;
14326;SDS011;7247;53.330;-1.180;2023-04-25T07:44:33;7.33;;;2.40;;
14326;SDS011;7247;53.330;-1.180;2023-04-25T07:47:03;5.73;;;2.20;;
14326;SDS011;7247;53.330;-1.180;2023-04-25T07:49:30;5.70;;;2.10;;
14326;SDS011;7247;53.330;-1.180;2023-04-25T07:51:56;5.30;;;2.40;;
14326;SDS011;7247;53.330;-1.180;2023-04-25T07:54:23;7.90;;;2.60;;
14326;SDS011;7247;53.330;-1.180;2023-04-25T07:56:51;3.80;;;2.40;;
14326;SDS011;7247;53.330;-1.180;2023-04-25T07:59:18;10.33;;;2.37;;
14326;SDS011;7247;53.330;-1.180;2023-04-25T08:01:44;6.57;;;2.43;;
14326;SDS011;7247;53.330;-1.180;2023-04-25T08:04:10;6.23;;;2.47;;
14326;SDS011;7247;53.330;-1.180;2023-04-25T08:06:37;7.87;;;2.70;;
14326;SDS011;7247;53.330;-1.180;2023-04-25T08:09:03;7.63;;;2.80;;
14326;SDS011;7247;53.330;-1.180;2023-04-25T08:11:30;8.63;;;2.43;;
14326;SDS011;7247;53.330;-1.180;2023-04-25T08:13:58;9.53;;;2.80;;
14326;SDS011;7247;53.330;-1.180;2023-04-25T08:16:24;5.60;;;2.30;;
14326;SDS011;7247;53.330;-1.180;2023-04-25T08:18:50;7.53;;;2.43;;
14326;SDS011;7247;53.330;-1.180;2023-04-25T08:21:17;6.73;;;2.63;;
14326;SDS011;7247;53.330;-1.180;2023-04-25T08:23:43;6.40;;;2.43;;
14326;SDS011;7247;53.330;-1.180;2023-04-25T08:26:10;5.37;;;2.57;;
14326;SDS011;7247;53.330;-1.180;2023-04-25T08:28:36;6.60;;;2.50;;
14326;SDS011;7247;53.330;-1.180;2023-04-25T08:31:04;3.60;;;2.10;;
14326;SDS011;7247;53.330;-1.180;2023-04-25T08:33:30;5.17;;;2.40;;
14326;SDS011;7247;53.330;-1.180;2023-04-25T08:35:57;5.67;;;2.27;;
14326;SDS011;7247;53.330;-1.180;2023-04-25T08:38:24;8.37;;;2.60;;
14326;SDS011;7247;53.330;-1.180;2023-04-25T08:40:50;6.33;;;2.67;;
14326;SDS011;7247;53.330;-1.180;2023-04-25T08:43:17;5.50;;;2.83;;
14326;SDS011;7247;53.330;-1.180;2023-04-25T08:45:44;6.03;;;2.27;;
14326;SDS011;7247;53.330;-1.180;2023-04-25T08:48:13;7.13;;;2.37;;
14326;SDS011;7247;53.330;-1.180;2023-04-25T08:50:40;6.67;;;3.37;;
14326;SDS011;7247;53.330;-1.180;2023-04-25T08:53:08;5.40;;;2.57;;
14326;SDS011;7247;53.330;-1.180;2023-04-25T08:55:36;6.97;;;2.40;;
14326;SDS011;7247;53.330;-1.180;2023-04-25T08:58:03;6.53;;;3.03;;
14326;SDS011;7247;53.330;-1.180;2023-04-25T09:00:31;4.73;;;2.07;;
14326;SDS011;7247;53.330;-1.180;2023-04-25T09:02:57;5.77;;;2.60;;
14326;SDS011;7247;53.330;-1.180;2023-04-25T09:05:26;5.90;;;2.40;;
14326;SDS011;7247;53.330;-1.180;2023-04-25T09:07:53;8.37;;;2.60;;
14326;SDS011;7247;53.330;-1.180;2023-04-25T09:10:21;6.40;;;2.20;;
14326;SDS011;7247;53.330;-1.180;2023-04-25T09:13:01;4.87;;;2.03;;
14326;SDS011;7247;53.330;-1.180;2023-04-25T09:15:28;4.70;;;2.60;;
14326;SDS011;7247;53.330;-1.180;2023-04-25T09:17:55;4.97;;;2.30;;
14326;SDS011;7247;53.330;-1.180;2023-04-25T09:20:21;4.10;;;2.30;;
14326;SDS011;7247;53.330;-1.180;2023-04-25T09:22:49;4.00;;;2.40;;
14326;SDS011;7247;53.330;-1.180;2023-04-25T09:25:15;5.40;;;2.40;;
14326;SDS011;7247;53.330;-1.180;2023-04-25T09:27:48;5.93;;;2.23;;
14326;SDS011;7247;53.330;-1.180;2023-04-25T09:30:15;7.73;;;2.50;;
14326;SDS011;7247;53.330;-1.180;2023-04-25T09:32:42;6.20;;;2.40;;
14326;SDS011;7247;53.330;-1.180;2023-04-25T09:35:09;6.00;;;2.43;;
14326;SDS011;7247;53.330;-1.180;2023-04-25T09:37:36;4.63;;;2.40;;
14326;SDS011;7247;53.330;-1.180;2023-04-25T09:40:05;8.30;;;2.90;;
14326;SDS011;7247;53.330;-1.180;2023-04-25T09:42:33;10.00;;;2.60;;
14326;SDS011;7247;53.330;-1.180;2023-04-25T09:45:00;4.97;;;2.17;;
14326;SDS011;7247;53.330;-1.180;2023-04-25T09:47:27;4.83;;;2.17;;
14326;SDS011;7247;53.330;-1.180;2023-04-25T09:49:54;4.47;;;2.60;;
14326;SDS011;7247;53.330;-1.180;2023-04-25T09:52:21;6.13;;;2.60;;
14326;SDS011;7247;53.330;-1.180;2023-04-25T09:54:48;6.17;;;2.33;;
14326;SDS011;7247;53.330;-1.180;2023-04-25T09:57:16;4.07;;;2.00;;
14326;SDS011;7247;53.330;-1.180;2023-04-25T09:59:43;7.27;;;2.90;;
14326;SDS011;7247;53.330;-1.180;2023-04-25T10:02:11;3.70;;;2.27;;
14326;SDS011;7247;53.330;-1.180;2023-04-25T10:04:38;4.20;;;2.30;;
14326;SDS011;7247;53.330;-1.180;2023-04-25T10:07:05;5.53;;;2.37;;
14326;SDS011;7247;53.330;-1.180;2023-04-25T10:09:32;4.97;;;2.37;;
14326;SDS011;7247;53.330;-1.180;2023-04-25T10:12:00;3.60;;;2.20;;
14326;SDS011;7247;53.330;-1.180;2023-04-25T10:14:28;7.73;;;3.13;;
14326;SDS011;7247;53.330;-1.180;2023-04-25T10:16:55;6.27;;;2.67;;
14326;SDS011;7247;53.330;-1.180;2023-04-25T10:19:23;4.63;;;2.40;;
14326;SDS011;7247;53.330;-1.180;2023-04-25T10:21:51;6.43;;;2.60;;
14326;SDS011;7247;53.330;-1.180;2023-04-25T10:24:18;4.17;;;2.47;;
14326;SDS011;7247;53.330;-1.180;2023-04-25T10:26:45;5.37;;;2.60;;
14326;SDS011;7247;53.330;-1.180;2023-04-25T10:29:12;5.43;;;2.67;;
14326;SDS011;7247;53.330;-1.180;2023-04-25T10:31:45;4.23;;;2.60;;
14326;SDS011;7247;53.330;-1.180;2023-04-25T10:34:12;6.27;;;2.70;;
14326;SDS011;7247;53.330;-1.180;2023-04-25T10:36:39;4.70;;;2.47;;
14326;SDS011;7247;53.330;-1.180;2023-04-25T10:39:06;5.63;;;2.50;;
14326;SDS011;7247;53.330;-1.180;2023-04-25T10:41:45;6.50;;;2.50;;
14326;SDS011;7247;53.330;-1.180;2023-04-25T10:44:11;7.97;;;2.63;;
14326;SDS011;7247;53.330;-1.180;2023-04-25T10:46:38;9.60;;;2.63;;
14326;SDS011;7247;53.330;-1.180;2023-04-25T10:49:06;6.20;;;2.63;;
14326;SDS011;7247;53.330;-1.180;2023-04-25T10:51:34;5.00;;;2.50;;
14326;SDS011;7247;53.330;-1.180;2023-04-25T10:54:01;4.37;;;2.57;;
14326;SDS011;7247;53.330;-1.180;2023-04-25T10:56:28;3.83;;;2.40;;
14326;SDS011;7247;53.330;-1.180;2023-04-25T10:59:08;4.10;;;2.57;;
14326;SDS011;7247;53.330;-1.180;2023-04-25T11:01:38;5.23;;;2.60;;
14326;SDS011;7247;53.330;-1.180;2023-04-25T11:04:06;7.03;;;2.60;;
14326;SDS011;7247;53.330;-1.180;2023-04-25T11:06:46;2.77;;;2.10;;
14326;SDS011;7247;53.330;-1.180;2023-04-25T11:09:18;4.47;;;2.57;;
14326;SDS011;7247;53.330;-1.180;2023-04-25T11:11:53;4.90;;;2.57;;
14326;SDS011;7247;53.330;-1.180;2023-04-25T11:14:19;3.50;;;2.50;;
14326;SDS011;7247;53.330;-1.180;2023-04-25T11:16:46;6.53;;;2.63;;
14326;SDS011;7247;53.330;-1.180;2023-04-25T11:19:14;4.80;;;2.43;;
14326;SDS011;7247;53.330;-1.180;2023-04-25T11:21:41;5.60;;;2.60;;
14326;SDS011;7247;53.330;-1.180;2023-04-25T11:24:07;5.23;;;2.67;;
14326;SDS011;7247;53.330;-1.180;2023-04-25T11:26:33;5.17;;;3.03;;
14326;SDS011;7247;53.330;-1.180;2023-04-25T11:29:00;5.30;;;2.70;;
14326;SDS011;7247;53.330;-1.180;2023-04-25T11:31:26;7.43;;;2.60;;
14326;SDS011;7247;53.330;-1.180;2023-04-25T11:33:53;6.30;;;2.60;;
14326;SDS011;7247;53.330;-1.180;2023-04-25T11:36:22;5.90;;;3.03;;
14326;SDS011;7247;53.330;-1.180;2023-04-25T11:38:48;5.00;;;2.80;;
14326;SDS011;7247;53.330;-1.180;2023-04-25T11:41:14;6.43;;;2.73;;
14326;SDS011;7247;53.330;-1.180;2023-04-25T11:43:42;8.10;;;2.57;;
14326;SDS011;7247;53.330;-1.180;2023-04-25T11:46:09;5.83;;;2.70;;
14326;SDS011;7247;53.330;-1.180;2023-04-25T11:48:36;4.33;;;2.63;;
14326;SDS011;7247;53.330;-1.180;2023-04-25T11:51:03;4.10;;;2.60;;
14326;SDS011;7247;53.330;-1.180;2023-04-25T11:53:31;7.43;;;2.73;;
14326;SDS011;7247;53.330;-1.180;2023-04-25T11:55:58;4.70;;;2.63;;
14326;SDS011;7247;53.330;-1.180;2023-04-25T11:58:25;6.27;;;3.07;;
14326;SDS011;7247;53.330;-1.180;2023-04-25T12:00:51;5.83;;;3.23;;
14326;SDS011;7247;53.330;-1.180;2023-04-25T12:03:18;6.03;;;2.90;;
14326;SDS011;7247;53.330;-1.180;2023-04-25T12:05:44;4.77;;;2.63;;
14326;SDS011;7247;53.330;-1.180;2023-04-25T12:08:11;4.93;;;2.70;;
14326;SDS011;7247;53.330;-1.180;2023-04-25T12:10:40;7.10;;;2.90;;
14326;SDS011;7247;53.330;-1.180;2023-04-25T12:13:20;5.70;;;3.00;;
14326;SDS011;7247;53.330;-1.180;2023-04-25T12:15:46;6.17;;;2.90;;
14326;SDS011;7247;53.330;-1.180;2023-04-25T12:18:13;4.43;;;2.80;;
14326;SDS011;7247;53.330;-1.180;2023-04-25T12:20:39;5.90;;;3.13;;
14326;SDS011;7247;53.330;-1.180;2023-04-25T12:23:05;5.60;;;3.10;;
14326;SDS011;7247;53.330;-1.180;2023-04-25T12:25:33;7.07;;;2.90;;
14326;SDS011;7247;53.330;-1.180;2023-04-25T12:28:10;6.83;;;2.93;;
14326;SDS011;7247;53.330;-1.180;2023-04-25T12:30:51;7.77;;;3.00;;
14326;SDS011;7247;53.330;-1.180;2023-04-25T12:33:18;4.67;;;2.70;;
14326;SDS011;7247;53.330;-1.180;2023-04-25T12:35:44;5.00;;;3.13;;
14326;SDS011;7247;53.330;-1.180;2023-04-25T12:38:10;4.03;;;2.80;;
14326;SDS011;7247;53.330;-1.180;2023-04-25T12:40:37;5.93;;;3.10;;
14326;SDS011;7247;53.330;-1.180;2023-04-25T12:43:03;3.90;;;2.67;;
14326;SDS011;7247;53.330;-1.180;2023-04-25T12:45:31;5.30;;;2.67;;
14326;SDS011;7247;53.330;-1.180;2023-04-25T12:47:57;5.27;;;3.10;;
14326;SDS011;7247;53.330;-1.180;2023-04-25T12:50:24;6.30;;;2.97;;
14326;SDS011;7247;53.330;-1.180;2023-04-25T12:52:51;5.63;;;3.10;;
14326;SDS011;7247;53.330;-1.180;2023-04-25T12:55:18;5.00;;;3.10;;
14326;SDS011;7247;53.330;-1.180;2023-04-25T12:57:44;3.73;;;2.80;;
14326;SDS011;7247;53.330;-1.180;2023-04-25T13:00:11;5.33;;;3.13;;
14326;SDS011;7247;53.330;-1.180;2023-04-25T13:02:41;4.87;;;3.23;;
14326;SDS011;7247;53.330;-1.180;2023-04-25T13:05:07;5.07;;;3.20;;
14326;SDS011;7247;53.330;-1.180;2023-04-25T13:07:34;4.57;;;2.80;;
14326;SDS011;7247;53.330;-1.180;2023-04-25T13:10:00;6.20;;;3.00;;
14326;SDS011;7247;53.330;-1.180;2023-04-25T13:12:27;4.03;;;3.07;;
14326;SDS011;7247;53.330;-1.180;2023-04-25T13:14:54;5.03;;;2.80;;
14326;SDS011;7247;53.330;-1.180;2023-04-25T13:17:20;3.63;;;2.90;;
14326;SDS011;7247;53.330;-1.180;2023-04-25T13:19:48;6.73;;;3.30;;
14326;SDS011;7247;53.330;-1.180;2023-04-25T13:22:14;5.43;;;3.20;;
14326;SDS011;7247;53.330;-1.180;2023-04-25T13:24:41;4.30;;;2.93;;
14326;SDS011;7247;53.330;-1.180;2023-04-25T13:27:08;3.77;;;3.13;;
14326;SDS011;7247;53.330;-1.180;2023-04-25T13:29:34;4.83;;;3.07;;
14326;SDS011;7247;53.330;-1.180;2023-04-25T13:32:03;4.47;;;2.90;;
14326;SDS011;7247;53.330;-1.180;2023-04-25T13:34:30;5.57;;;3.20;;
14326;SDS011;7247;53.330;-1.180;2023-04-25T13:36:58;5.90;;;3.27;;
14326;SDS011;7247;53.330;-1.180;2023-04-25T13:39:24;7.03;;;3.63;;
14326;SDS011;7247;53.330;-1.180;2023-04-25T13:41:50;4.93;;;2.97;;
14326;SDS011;7247;53.330;-1.180;2023-04-25T13:44:17;4.20;;;3.37;;
14326;SDS011;7247;53.330;-1.180;2023-04-25T13:46:43;4.87;;;3.37;;
14326;SDS011;7247;53.330;-1.180;2023-04-25T13:49:11;6.07;;;3.13;;
14326;SDS011;7247;53.330;-1.180;2023-04-25T13:51:37;4.70;;;3.10;;
14326;SDS011;7247;53.330;-1.180;2023-04-25T13:54:05;7.05;;;3.20;;
14326;SDS011;7247;53.330;-1.180;2023-04-25T13:56:32;6.28;;;3.50;;
14326;SDS011;7247;53.330;-1.180;2023-04-25T13:58:59;4.13;;;3.10;;
14326;SDS011;7247;53.330;-1.180;2023-04-25T14:01:25;3.35;;;2.90;;
14326;SDS011;7247;53.330;-1.180;2023-04-25T14:03:53;3.22;;;2.90;;
14326;SDS011;7247;53.330;-1.180;2023-04-25T14:06:19;5.03;;;3.10;;
14326;SDS011;7247;53.330;-1.180;2023-04-25T14:08:48;5.47;;;3.25;;
14326;SDS011;7247;53.330;-1.180;2023-04-25T14:11:15;4.25;;;3.17;;
14326;SDS011;7247;53.330;-1.180;2023-04-25T14:13:43;6.07;;;3.20;;
14326;SDS011;7247;53.330;-1.180;2023-04-25T14:16:09;5.80;;;3.15;;
14326;SDS011;7247;53.330;-1.180;2023-04-25T14:18:35;5.63;;;3.25;;
14326;SDS011;7247;53.330;-1.180;2023-04-25T14:21:02;4.88;;;3.35;;
14326;SDS011;7247;53.330;-1.180;2023-04-25T14:23:29;8.23;;;3.47;;
14326;SDS011;7247;53.330;-1.180;2023-04-25T14:25:56;4.35;;;3.15;;
14326;SDS011;7247;53.330;-1.180;2023-04-25T14:28:23;4.13;;;3.28;;
14326;SDS011;7247;53.330;-1.180;2023-04-25T14:30:50;5.47;;;3.35;;
14326;SDS011;7247;53.330;-1.180;2023-04-25T14:33:16;4.75;;;3.45;;
14326;SDS011;7247;53.330;-1.180;2023-04-25T14:35:43;3.95;;;2.90;;
14326;SDS011;7247;53.330;-1.180;2023-04-25T14:38:09;4.15;;;3.08;;
14326;SDS011;7247;53.330;-1.180;2023-04-25T14:40:36;3.70;;;3.05;;
14326;SDS011;7247;53.330;-1.180;2023-04-25T14:43:03;3.95;;;3.03;;
14326;SDS011;7247;53.330;-1.180;2023-04-25T14:45:31;4.88;;;3.28;;